Time;durP1;ratioP1;P1;durP2;ratioP2;P2;SDS_P1;SDS_P2;PMS_P1;PMS_P2;Temp;Humidity;BMP_temperature;BMP_pressure;BME280_temperature;BME280_humidity;BME280_pressure;Samples;Min_cycle;Max_cycle;Signal;HPM_P1;HPM_P2
2022/11/12 00:02:12;;;;;;;28.00;10.40;;;;;;;9.09;75.26;100831.98;24581;1329;3056224;-66
2022/11/12 00:05:03;;;;;;;28.60;11.30;;;;;;;8.96;75.29;100834.89;24564;1329;3053114;-67
2022/11/12 00:07:52;;;;;;;23.50;11.50;;;;;;;8.57;76.43;100840.47;24605;1322;3053566;-63
2022/11/12 00:10:40;;;;;;;32.70;12.70;;;;;;;8.34;77.02;100845.64;24557;1330;3053644;-64
2022/11/12 00:13:28;;;;;;;30.00;12.70;;;;;;;8.07;78.28;100858.81;24554;1326;3052263;-67
2022/11/12 00:16:16;;;;;;;31.60;12.30;;;;;;;7.97;78.84;100858.56;24519;1336;3049861;-64
2022/11/12 00:19:04;;;;;;;21.20;8.20;;;;;;;8.03;78.82;100859.61;24477;1329;3069933;-64
2022/11/12 00:21:51;;;;;;;24.60;8.70;;;;;;;8.77;77.16;100848.41;24517;1327;3051336;-65
2022/11/12 00:24:39;;;;;;;24.30;9.60;;;;;;;9.25;75.22;100845.11;24567;1329;3057476;-64
2022/11/12 00:27:27;;;;;;;26.90;11.00;;;;;;;9.28;74.57;100845.89;24489;1329;3053690;-64
2022/11/12 00:30:15;;;;;;;27.40;10.90;;;;;;;9.12;74.97;100836.82;24504;1339;3053369;-65
2022/11/12 00:33:03;;;;;;;25.80;11.40;;;;;;;9.00;75.09;100831.42;24459;1329;3052209;-63
2022/11/12 00:35:51;;;;;;;28.00;11.60;;;;;;;8.86;75.26;100837.29;24508;1322;3054251;-65
2022/11/12 00:38:38;;;;;;;34.40;13.60;;;;;;;8.75;74.92;100830.29;24494;1330;3049964;-65
2022/11/12 00:41:26;;;;;;;33.80;14.30;;;;;;;8.44;76.44;100839.78;24531;1329;3070674;-65
2022/11/12 00:44:14;;;;;;;34.80;15.00;;;;;;;8.22;77.53;100842.84;24568;1329;3051969;-65
2022/11/12 00:47:02;;;;;;;26.90;10.60;;;;;;;8.22;77.66;100840.59;24490;1321;3056969;-63
2022/11/12 00:49:50;;;;;;;28.80;10.10;;;;;;;8.99;75.80;100834.25;24489;1329;3053247;-64
2022/11/12 00:52:38;;;;;;;30.10;12.70;;;;;;;9.56;74.44;100833.75;24506;1329;3052447;-65
2022/11/12 00:55:25;;;;;;;34.30;13.80;;;;;;;9.28;73.52;100832.61;24580;1323;3052623;-66
2022/11/12 00:58:14;;;;;;;33.20;13.50;;;;;;;9.07;74.50;100832.08;24590;1330;3052755;-66
2022/11/12 01:01:09;;;;;;;28.00;13.50;;;;;;;8.86;74.99;100834.32;24582;1323;3050151;-65
2022/11/12 01:03:58;;;;;;;34.80;13.20;;;;;;;8.57;75.97;100836.27;24488;1329;3070442;-64
2022/11/12 01:06:46;;;;;;;31.90;13.50;;;;;;;8.31;77.03;100826.86;24468;1330;3050829;-63
2022/11/12 01:09:33;;;;;;;44.60;16.80;;;;;;;8.21;77.58;100822.64;24470;1329;3058146;-64
2022/11/12 01:12:21;;;;;;;26.90;9.90;;;;;;;8.03;78.54;100821.23;24475;1323;3054084;-64
2022/11/12 01:15:12;;;;;;;28.90;11.30;;;;;;;8.66;77.10;100811.67;24496;1332;3054364;-65
2022/11/12 01:18:01;;;;;;;35.10;13.10;;;;;;;9.30;75.08;100809.45;24519;1326;3053112;-68
2022/11/12 01:20:49;;;;;;;33.20;14.10;;;;;;;9.28;74.12;100806.20;24506;1322;3053647;-65
2022/11/12 01:23:38;;;;;;;37.70;14.50;;;;;;;9.12;74.60;100802.55;24580;1330;3049945;-64
2022/11/12 01:26:28;;;;;;;39.80;16.70;;;;;;;8.80;75.06;100798.34;24468;1330;3070037;-63
2022/11/12 01:29:18;;;;;;;42.90;16.00;;;;;;;8.33;76.47;100800.30;24493;1339;3050651;-64
2022/11/12 01:32:06;;;;;;;42.00;16.70;;;;;;;8.22;77.55;100804.29;24501;1330;3057860;-61
2022/11/12 01:34:55;;;;;;;41.30;16.70;;;;;;;8.08;78.14;100806.23;24478;1328;3053609;-64
2022/11/12 01:37:43;;;;;;;26.10;9.90;;;;;;;8.00;78.66;100809.44;24460;1339;3052819;-62
2022/11/12 01:40:31;;;;;;;33.60;13.00;;;;;;;8.63;76.83;100801.84;24490;1329;3052142;-62
2022/11/12 01:43:19;;;;;;;38.60;14.60;;;;;;;9.00;75.29;100796.30;24453;1330;3052938;-63
2022/11/12 01:46:12;;;;;;;43.60;16.60;;;;;;;9.21;74.83;100801.73;24473;1330;3049232;-66
2022/11/12 01:49:02;;;;;;;38.90;15.50;;;;;;;8.90;74.87;100799.77;24480;1323;3069796;-65
2022/11/12 01:51:50;;;;;;;42.50;16.60;;;;;;;8.52;76.00;100798.86;24534;1330;3048672;-63
2022/11/12 01:54:38;;;;;;;41.10;15.80;;;;;;;8.20;77.50;100798.38;24477;1326;3057481;-63
2022/11/12 01:57:28;;;;;;;46.90;16.30;;;;;;;7.99;78.56;100799.01;24494;1330;3052528;-62
2022/11/12 02:00:17;;;;;;;42.00;15.40;;;;;;;7.71;79.66;100803.97;24520;1338;3053641;-64
2022/11/12 02:03:12;;;;;;;28.50;10.60;;;;;;;7.59;80.19;100800.63;24465;1331;3052081;-63
2022/11/12 02:06:01;;;;;;;;;;;;;;;8.06;79.92;100797.76;24482;1330;3052214;-66
2022/11/12 02:08:49;;;;;;;32.90;11.00;;;;;;;8.87;77.18;100786.06;24571;1330;3048507;-64
2022/11/12 02:11:37;;;;;;;33.30;13.30;;;;;;;8.68;76.29;100790.15;24495;1329;3069050;-68
2022/11/12 02:14:24;;;;;;;37.40;15.00;;;;;;;8.30;77.60;100794.77;24515;1322;3051059;-64
2022/11/12 02:17:16;;;;;;;36.70;13.50;;;;;;;7.91;78.98;100804.98;24486;1339;3057470;-65
2022/11/12 02:20:11;;;;;;;38.90;15.00;;;;;;;7.69;79.95;100820.06;24514;1323;3052520;-67
2022/11/12 07:08:30;;;;;;;20.30;9.70;;;;;;;9.68;76.29;100861.14;30920;1337;3013418;-69
2022/11/12 07:11:19;;;;;;;20.20;9.30;;;;;;;9.40;76.92;100861.77;24503;1339;3070833;-68
2022/11/12 07:14:11;;;;;;;16.10;8.40;;;;;;;9.16;77.94;100867.80;24567;1334;3051146;-69
2022/11/12 07:16:59;;;;;;;21.10;9.30;;;;;;;9.12;78.08;100868.63;24486;1334;3057864;-69
2022/11/12 07:19:47;;;;;;;18.20;8.70;;;;;;;8.92;78.72;100866.48;24563;1337;3053048;-69
2022/11/12 07:22:36;;;;;;;11.30;5.50;;;;;;;8.85;79.48;100865.79;23907;1333;4409688;-67
2022/11/12 07:25:24;;;;;;;16.60;7.30;;;;;;;9.69;77.44;100864.78;24573;1333;3051463;-70
2022/11/12 07:28:11;;;;;;;13.70;6.90;;;;;;;10.24;75.03;100861.28;24585;1331;3053889;-71
2022/11/12 07:31:00;;;;;;;22.70;9.80;;;;;;;10.12;74.91;100858.21;24570;1322;3050570;-65
2022/11/12 07:33:49;;;;;;;22.00;9.50;;;;;;;9.70;75.77;100864.76;24533;1327;3069379;-70
2022/11/12 07:36:37;;;;;;;21.90;9.20;;;;;;;9.33;77.16;100869.69;24566;1327;3050653;-69
2022/11/12 07:39:25;;;;;;;15.70;8.30;;;;;;;9.13;78.50;100865.80;24588;1340;3057113;-68
2022/11/12 07:42:13;;;;;;;16.60;7.80;;;;;;;9.11;78.53;100870.23;24558;1333;3052537;-66
2022/11/12 07:45:00;;;;;;;10.00;4.40;;;;;;;9.08;78.10;100873.30;24537;1337;3054204;-70
2022/11/12 07:47:48;;;;;;;9.00;4.40;;;;;;;9.59;76.94;100875.98;24598;1330;3050846;-69
2022/11/12 07:50:36;;;;;;;12.10;5.80;;;;;;;10.17;74.69;100873.79;24639;1324;3053508;-69
2022/11/12 07:53:24;;;;;;;10.60;5.70;;;;;;;10.14;74.30;100870.04;24623;1331;3050951;-73
2022/11/12 07:56:18;;;;;;;12.60;6.00;;;;;;;9.96;74.86;100875.05;24567;1330;3069334;-67
2022/11/12 07:59:06;;;;;;;13.40;6.60;;;;;;;9.81;75.49;100878.75;24606;1334;3050421;-66
2022/11/12 08:01:54;;;;;;;11.80;5.70;;;;;;;9.46;76.41;100884.85;24623;1317;3056860;-67
2022/11/12 08:04:43;;;;;;;9.40;5.00;;;;;;;9.31;76.41;100887.05;24542;1323;3053853;-70
2022/11/12 08:07:31;;;;;;;13.20;5.90;;;;;;;9.17;77.12;100883.32;24547;1330;3053451;-64
2022/11/12 08:10:18;;;;;;;9.70;4.80;;;;;;;8.88;79.05;100894.55;24553;1334;3051310;-67
2022/11/12 08:13:06;;;;;;;9.80;4.30;;;;;;;9.71;77.02;100887.65;24613;1329;3053020;-67
2022/11/12 08:16:00;;;;;;;13.20;5.80;;;;;;;10.02;75.39;100882.90;24612;1334;3050559;-66
2022/11/12 08:18:48;;;;;;;12.40;5.70;;;;;;;10.17;74.82;100877.30;24602;1330;3068669;-65
2022/11/12 08:21:35;;;;;;;15.60;7.10;;;;;;;10.08;74.94;100885.66;24573;1334;3050890;-65
2022/11/12 08:24:23;;;;;;;14.60;6.90;;;;;;;9.92;75.17;100888.69;24609;1334;3055974;-68
2022/11/12 08:27:11;;;;;;;17.40;6.30;;;;;;;9.83;75.21;100890.73;24529;1340;3053907;-68
2022/11/12 08:29:58;;;;;;;15.60;7.00;;;;;;;9.66;75.14;100887.99;24514;1333;3053528;-67
2022/11/12 08:32:47;;;;;;;12.90;6.30;;;;;;;9.26;77.03;100891.05;24564;1326;3050763;-66
2022/11/12 08:35:36;;;;;;;10.00;4.40;;;;;;;9.31;77.55;100887.75;24539;1337;3054198;-67
2022/11/12 08:38:24;;;;;;;9.60;4.20;;;;;;;10.42;74.84;100876.21;24564;1335;3050355;-69
2022/11/12 08:41:50;;;;;;;12.00;5.70;;;;;;;10.88;72.43;100881.66;30788;1323;3013399;-65
2022/11/12 08:44:38;;;;;;;10.40;5.90;;;;;;;10.73;71.90;100885.56;24500;1334;3068398;-67
2022/11/12 08:47:26;;;;;;;9.40;5.60;;;;;;;10.16;73.18;100889.21;24572;1331;3051489;-67
2022/11/12 08:50:13;;;;;;;9.50;5.50;;;;;;;10.01;73.38;100878.05;24572;1326;3056248;-67
2022/11/12 08:53:02;;;;;;;9.30;5.10;;;;;;;9.61;75.49;100882.21;24563;1327;3054128;-66
2022/11/12 08:55:54;;;;;;;11.20;6.10;;;;;;;9.72;74.49;100873.63;23884;1341;4215128;-72
2022/11/12 08:58:43;;;;;;;15.00;9.00;;;;;;;9.55;75.99;100866.31;24560;1332;3058073;-72
2022/11/12 09:01:31;;;;;;;10.10;5.90;;;;;;;9.53;76.50;100861.84;24566;1330;3052703;-74
2022/11/12 09:04:19;;;;;;;8.90;5.20;;;;;;;10.48;74.21;100857.94;24539;1331;3053099;-75
2022/11/12 09:07:07;;;;;;;8.60;4.90;;;;;;;11.22;71.80;100858.04;24518;1329;3050752;-68
2022/11/12 09:09:55;;;;;;;9.60;5.90;;;;;;;11.31;70.38;100862.02;24560;1324;3053621;-71
2022/11/12 09:13:02;;;;;;;10.10;5.40;;;;;;;10.90;71.45;100870.52;24522;1333;3051807;-71
2022/11/12 09:15:52;;;;;;;8.90;5.30;;;;;;;10.56;71.81;100860.98;24561;1330;3068084;-73
2022/11/12 09:18:40;;;;;;;11.40;6.00;;;;;;;10.10;73.28;100850.21;24580;1331;3050634;-72
2022/11/12 09:21:28;;;;;;;9.30;6.30;;;;;;;10.22;72.83;100848.02;24536;1330;3057474;-63
2022/11/12 09:24:15;;;;;;;11.40;6.50;;;;;;;10.02;73.23;100840.52;24523;1322;3054267;-66
2022/11/12 09:27:03;;;;;;;10.20;6.00;;;;;;;9.78;74.57;100835.11;24491;1331;3054279;-63
2022/11/12 09:29:52;;;;;;;7.50;4.70;;;;;;;9.85;74.91;100835.88;24572;1331;3052156;-60
2022/11/12 09:32:40;;;;;;;11.20;5.70;;;;;;;10.86;71.75;100835.97;24529;1324;3054340;-60
2022/11/12 09:35:28;;;;;;;10.10;5.80;;;;;;;10.99;70.92;100836.17;24488;1334;3050820;-62
2022/11/12 09:38:16;;;;;;;12.10;6.50;;;;;;;10.70;71.34;100821.90;24478;1333;3070324;-61
2022/11/12 09:41:15;;;;;;;12.40;6.90;;;;;;;10.62;71.89;100819.05;24584;1331;3050342;-61
2022/11/12 09:44:05;;;;;;;13.20;6.90;;;;;;;10.46;71.69;100815.61;24502;1339;3058116;-62
2022/11/12 09:47:17;;;;;;;15.80;7.70;;;;;;;10.19;73.14;100817.34;24539;1331;3054005;-63
2022/11/12 09:50:32;;;;;;;14.50;8.50;;;;;;;10.11;73.37;100813.77;24534;1331;3053362;-62
2022/11/12 09:53:35;;;;;;;14.70;8.20;;;;;;;10.15;72.87;100812.59;24491;1331;3051011;-67
2022/11/12 09:56:24;;;;;;;13.70;8.20;;;;;;;10.12;72.81;100809.71;24485;1331;3053559;-62
2022/11/12 09:59:12;;;;;;;12.10;6.70;;;;;;;9.88;74.66;100817.23;24489;1340;3049684;-62
2022/11/12 10:02:25;;;;;;;11.10;5.90;;;;;;;10.83;72.03;100808.77;24461;1333;3070965;-62
2022/11/12 10:05:33;;;;;;;10.50;6.40;;;;;;;10.60;71.54;100808.80;24510;1331;3050016;-62
2022/11/12 10:08:33;;;;;;;14.10;7.30;;;;;;;10.80;70.83;100813.08;24453;1331;3058336;-65
2022/11/12 10:19:52;;;;;;;10.70;6.60;;;;;;;10.28;72.02;100809.46;24432;1337;3052770;-61
2022/11/12 10:22:57;;;;;;;14.00;7.60;;;;;;;10.08;72.30;100817.73;24479;1331;3052748;-62
2022/11/12 10:25:47;;;;;;;13.00;8.00;;;;;;;9.92;73.42;100808.88;24486;1340;3049475;-63
2022/11/12 10:28:46;;;;;;;7.20;4.80;;;;;;;9.83;74.15;100812.33;24488;1331;3070194;-61
2022/11/12 10:31:35;;;;;;;6.70;4.30;;;;;;;10.57;72.10;100815.18;24508;1334;3051405;-59
2022/11/12 10:34:24;;;;;;;10.90;5.80;;;;;;;11.08;69.86;100818.46;24548;1331;3056786;-63
2022/11/12 10:37:26;;;;;;;11.60;7.00;;;;;;;10.71;70.10;100810.80;24510;1331;3053981;-62
2022/11/12 10:40:21;;;;;;;10.20;6.90;;;;;;;10.54;70.80;100812.69;24511;1339;3053159;-62
2022/11/12 10:43:15;;;;;;;12.80;7.00;;;;;;;10.49;70.50;100818.86;24521;1324;3051749;-62
2022/11/12 10:46:19;;;;;;;11.90;6.70;;;;;;;10.25;71.21;100818.52;24534;1340;3051971;-64
2022/11/12 10:49:12;;;;;;;10.30;6.40;;;;;;;10.16;71.82;100814.11;24501;1332;3050413;-65
2022/11/12 10:52:00;;;;;;;11.60;6.70;;;;;;;9.76;73.35;100823.10;24484;1332;3069114;-60
2022/11/12 10:54:48;;;;;;;14.00;7.80;;;;;;;9.76;72.98;100818.56;24488;1331;3050462;-61
2022/11/12 10:57:35;;;;;;;11.90;6.80;;;;;;;9.43;74.38;100819.15;24482;1331;3058001;-61
2022/11/12 11:00:24;;;;;;;9.10;5.00;;;;;;;9.69;73.86;100805.82;24509;1326;3053931;-61
2022/11/12 11:03:18;;;;;;;10.00;5.10;;;;;;;10.54;71.75;100802.19;24471;1340;3054913;-63
2022/11/12 11:06:18;;;;;;;11.30;6.20;;;;;;;11.27;68.86;100805.55;24514;1323;3051130;-62
2022/11/12 11:09:10;;;;;;;10.70;6.00;;;;;;;10.95;69.48;100801.64;24481;1327;3054044;-61
2022/11/12 11:11:59;;;;;;;12.10;7.60;;;;;;;10.71;69.67;100802.04;24529;1339;3049343;-61
2022/11/12 11:14:48;;;;;;;12.50;7.80;;;;;;;10.50;70.41;100793.08;24442;1327;3068741;-61
2022/11/12 11:17:35;;;;;;;14.70;8.60;;;;;;;10.25;71.16;100799.61;24442;1337;3051290;-63
2022/11/12 11:20:27;;;;;;;13.20;7.80;;;;;;;10.03;72.11;100793.77;24501;1331;3057756;-64
2022/11/12 11:23:20;;;;;;;14.10;7.60;;;;;;;10.04;72.09;100787.96;24518;1324;3054467;-63
2022/11/12 11:26:20;;;;;;;16.10;8.60;;;;;;;9.91;72.56;100790.34;24503;1331;3053362;-63
2022/11/12 11:29:39;;;;;;;16.30;7.10;;;;;;;9.88;73.56;100785.56;24525;1332;3052090;-61
2022/11/12 11:32:59;;;;;;;12.40;7.10;;;;;;;10.51;72.22;100771.30;24541;1331;3053358;-62
2022/11/12 11:36:07;;;;;;;18.10;8.50;;;;;;;11.05;69.96;100768.25;24473;1331;3050798;-62
2022/11/12 11:39:01;;;;;;;19.10;8.40;;;;;;;11.07;69.55;100785.00;24527;1334;3071193;-62
2022/11/12 11:42:10;;;;;;;18.90;9.30;;;;;;;10.48;70.86;100781.39;24527;1331;3051783;-61
2022/11/12 11:45:04;;;;;;;16.00;7.80;;;;;;;10.11;72.40;100770.88;24516;1323;3058738;-64
2022/11/12 11:47:53;;;;;;;18.60;8.90;;;;;;;9.93;73.01;100773.46;24474;1333;3054897;-60
2022/11/12 11:50:50;;;;;;;18.50;9.30;;;;;;;9.76;73.55;100769.55;24558;1331;3053413;-61
2022/11/12 11:54:14;;;;;;;15.50;8.40;;;;;;;9.85;73.30;100768.52;24538;1324;3052378;-62
2022/11/12 11:57:04;;;;;;;13.60;6.60;;;;;;;10.13;73.11;100772.20;24481;1331;3052435;-61
2022/11/12 12:00:13;;;;;;;16.30;7.30;;;;;;;10.87;70.64;100759.52;24514;1323;3051265;-60
2022/11/12 12:03:07;;;;;;;12.00;6.30;;;;;;;10.91;70.00;100746.20;24482;1327;3068908;-60
2022/11/12 12:06:15;;;;;;;12.90;6.50;;;;;;;10.92;69.30;100763.35;24594;1325;3051384;-69
2022/11/12 12:09:29;;;;;;;16.20;7.30;;;;;;;10.69;69.46;100746.58;24638;1330;3056354;-66
2022/11/12 12:12:29;;;;;;;14.50;6.90;;;;;;;10.30;70.60;100747.58;24515;1326;3054821;-73
2022/11/12 12:15:25;;;;;;;15.50;7.40;;;;;;;10.14;71.44;100729.27;24523;1329;3054180;-69
2022/11/12 12:18:18;;;;;;;15.20;8.30;;;;;;;10.23;71.29;100733.69;24539;1334;3051446;-66
2022/11/12 12:21:14;;;;;;;16.00;7.30;;;;;;;9.92;72.69;100729.23;24520;1324;3052283;-67
2022/11/12 12:24:19;;;;;;;15.20;7.70;;;;;;;9.96;72.41;100739.73;24500;1325;3049419;-64
2022/11/12 12:27:25;;;;;;;13.80;6.70;;;;;;;10.16;72.55;100742.67;24502;1324;3069239;-70
2022/11/12 12:30:21;;;;;;;13.10;7.00;;;;;;;10.99;70.52;100730.44;24519;1339;3050695;-67
2022/11/12 12:33:29;;;;;;;20.70;9.80;;;;;;;11.00;69.74;100744.62;24577;1325;3057932;-68
2022/11/12 12:36:22;;;;;;;19.40;9.70;;;;;;;10.67;70.70;100725.96;24566;1340;3052995;-65
2022/11/12 12:39:17;;;;;;;20.10;10.40;;;;;;;10.33;72.00;100732.23;24578;1331;3055302;-67
2022/11/12 12:42:14;;;;;;;17.40;9.00;;;;;;;10.25;72.16;100727.47;24506;1331;3051041;-68
2022/11/12 12:45:36;;;;;;;18.40;9.30;;;;;;;10.29;71.87;100720.64;24555;1334;3053128;-68
2022/11/12 12:48:28;;;;;;;21.80;9.00;;;;;;;9.95;73.21;100741.04;24524;1317;3050530;-68
2022/11/12 12:51:17;;;;;;;13.50;7.30;;;;;;;9.80;73.34;100737.91;24472;1334;3070132;-68
2022/11/12 12:54:34;;;;;;;12.00;5.90;;;;;;;9.85;73.55;100733.86;24588;1317;3051055;-66
2022/11/12 12:57:32;;;;;;;12.90;6.50;;;;;;;10.58;72.38;100714.27;24582;1331;3056636;-69
2022/11/12 13:00:30;;;;;;;17.10;8.00;;;;;;;10.76;70.71;100721.07;24587;1323;3053903;-69
2022/11/12 13:03:41;;;;;;;15.90;8.30;;;;;;;10.67;70.44;100725.25;24584;1334;3053214;-69
2022/11/12 13:06:49;;;;;;;16.10;7.00;;;;;;;10.49;70.97;100712.71;24444;1327;3051827;-65
2022/11/12 13:09:38;;;;;;;13.70;6.00;;;;;;;10.46;70.80;100703.55;24548;1340;3053766;-69
2022/11/12 13:13:11;;;;;;;12.40;6.90;;;;;;;10.24;71.26;100693.71;24502;1331;3050481;-67
2022/11/12 13:15:58;;;;;;;14.40;7.10;;;;;;;9.65;73.28;100690.67;24556;1324;3069525;-66
2022/11/12 13:18:50;;;;;;;14.30;7.00;;;;;;;9.32;74.57;100700.43;24516;1334;3051319;-67
2022/11/12 13:21:39;;;;;;;15.30;7.50;;;;;;;9.15;75.27;100698.80;24504;1327;3056459;-69
2022/11/12 13:25:04;;;;;;;11.60;6.40;;;;;;;9.17;75.53;100709.22;24497;1330;3053190;-64
2022/11/12 13:27:52;;;;;;;14.30;6.60;;;;;;;10.21;72.30;100698.02;24529;1334;3052913;-68
2022/11/12 13:30:54;;;;;;;16.60;7.60;;;;;;;10.08;71.99;100706.23;24456;1327;3051836;-66
2022/11/12 13:33:42;;;;;;;17.90;8.90;;;;;;;9.85;72.78;100698.17;24548;1331;3053158;-64
2022/11/12 13:36:30;;;;;;;18.20;9.20;;;;;;;9.63;73.86;100700.40;24513;1331;3049882;-66
2022/11/12 13:39:18;;;;;;;20.40;9.60;;;;;;;9.58;73.85;100699.38;24598;1333;3070153;-66
2022/11/12 13:45:26;;;;;;;17.40;8.60;;;;;;;9.06;75.93;100708.17;24515;1337;3057513;-66
2022/11/12 13:48:22;;;;;;;15.80;7.70;;;;;;;8.98;77.11;100709.14;24573;1333;3054597;-68
2022/11/12 13:51:22;;;;;;;15.50;6.90;;;;;;;9.47;75.41;100692.23;24642;1330;3052486;-68
2022/11/12 13:54:27;;;;;;;17.90;8.20;;;;;;;9.64;74.41;100688.61;24601;1324;3051537;-67
2022/11/12 13:57:35;;;;;;;15.30;7.80;;;;;;;9.28;75.47;100693.96;24564;1318;3052691;-66
2022/11/12 14:00:27;;;;;;;19.70;9.50;;;;;;;9.04;76.20;100693.75;24599;1331;3051097;-67
2022/11/12 14:03:17;;;;;;;14.10;7.70;;;;;;;8.74;77.48;100686.39;24604;1331;3069125;-66
2022/11/12 14:06:14;;;;;;;14.50;7.70;;;;;;;8.54;78.41;100688.08;24517;1326;3051404;-68
2022/11/12 14:09:34;;;;;;;12.00;6.20;;;;;;;8.54;78.68;100683.90;24575;1334;3058157;-68
2022/11/12 14:12:24;;;;;;;12.50;5.80;;;;;;;9.09;77.33;100675.93;24581;1324;3053703;-70
2022/11/12 14:15:44;;;;;;;15.20;7.10;;;;;;;9.46;75.56;100665.52;24599;1330;3053566;-70
2022/11/12 14:18:55;;;;;;;16.90;7.90;;;;;;;9.34;75.44;100666.80;24555;1324;3052189;-68
2022/11/12 14:21:57;;;;;;;17.40;8.30;;;;;;;8.84;77.00;100670.16;24578;1334;3052860;-66
2022/11/12 14:24:48;;;;;;;19.20;8.10;;;;;;;8.63;77.63;100673.82;24588;1331;3049873;-66
2022/11/12 14:27:36;;;;;;;19.00;9.40;;;;;;;8.47;78.27;100675.20;24512;1325;3068639;-68
2022/11/12 14:30:25;;;;;;;16.00;7.10;;;;;;;8.15;80.62;100677.45;24588;1331;3050851;-71
2022/11/12 14:33:18;;;;;;;18.30;8.60;;;;;;;9.14;77.86;100658.45;24553;1330;3056796;-67
2022/11/12 14:36:10;;;;;;;23.00;9.60;;;;;;;9.21;76.36;100653.31;24603;1316;3052684;-71
2022/11/12 14:38:58;;;;;;;21.70;9.20;;;;;;;8.88;77.31;100654.98;24587;1337;3053989;-69
2022/11/12 14:41:48;;;;;;;21.50;9.30;;;;;;;8.84;77.11;100653.03;24631;1333;3051373;-68
2022/11/12 14:44:35;;;;;;;22.60;10.00;;;;;;;8.36;78.78;100658.62;24654;1331;3052330;-65
2022/11/12 14:47:23;;;;;;;21.30;10.00;;;;;;;8.17;79.59;100662.02;24595;1327;3050898;-68
2022/11/12 14:50:16;;;;;;;14.10;6.50;;;;;;;8.20;79.79;100655.98;24552;1324;3070042;-70
2022/11/12 14:53:07;;;;;;;15.60;7.40;;;;;;;8.86;78.39;100650.67;24602;1339;3049568;-70
2022/11/12 14:55:55;;;;;;;21.00;8.30;;;;;;;9.15;76.93;100640.73;24619;1327;3057360;-69
2022/11/12 14:58:44;;;;;;;22.60;9.80;;;;;;;8.86;77.23;100640.73;24578;1324;3053665;-69
2022/11/12 15:01:33;;;;;;;24.00;10.40;;;;;;;8.63;77.63;100642.17;24609;1340;3052959;-66
2022/11/12 15:04:24;;;;;;;23.30;11.30;;;;;;;8.19;79.55;100650.23;24624;1334;3052616;-68
2022/11/12 15:07:23;;;;;;;22.40;10.30;;;;;;;7.97;80.67;100638.89;24533;1331;3052783;-66
2022/11/12 15:10:47;;;;;;;21.90;11.80;;;;;;;7.89;80.70;100633.91;24579;1331;3051018;-69
2022/11/12 15:13:39;;;;;;;;;;;;;;;8.04;81.06;100621.41;24568;1323;3068947;-67
2022/11/12 15:16:30;;;;;;;14.00;6.60;;;;;;;8.50;79.35;100616.06;24516;1332;3050390;-68
2022/11/12 15:19:23;;;;;;;15.70;8.20;;;;;;;8.76;78.05;100604.73;24642;1334;3058498;-67
2022/11/12 15:22:19;;;;;;;17.70;9.40;;;;;;;8.49;78.80;100611.08;24581;1329;3053472;-67
2022/11/12 15:25:16;;;;;;;16.90;9.00;;;;;;;8.11;80.11;100602.84;24537;1331;3053649;-66
2022/11/12 15:28:12;;;;;;;19.90;10.80;;;;;;;7.96;80.04;100600.89;24574;1324;3052241;-65
2022/11/12 15:31:15;;;;;;;19.50;10.20;;;;;;;7.69;81.29;100592.13;24492;1331;3053584;-65
2022/11/12 15:34:28;;;;;;;15.50;8.00;;;;;;;7.66;82.21;100588.38;24550;1323;3049614;-68
2022/11/12 15:37:16;;;;;;;16.50;9.00;;;;;;;8.40;80.14;100574.52;24585;1331;3067975;-67
2022/11/12 15:40:10;;;;;;;13.80;8.60;;;;;;;8.34;79.11;100570.16;24506;1331;3049762;-67
2022/11/12 15:42:57;;;;;;;20.00;9.10;;;;;;;8.30;79.54;100576.60;24543;1316;3057745;-67
2022/11/12 15:45:49;;;;;;;20.80;10.60;;;;;;;8.08;79.95;100588.29;24517;1331;3053259;-64
2022/11/12 15:48:41;;;;;;;23.10;12.20;;;;;;;7.51;82.48;100597.37;24554;1331;3053935;-66
2022/11/12 15:51:29;;;;;;;19.60;9.80;;;;;;;7.35;83.52;100590.18;24539;1322;3051788;-63
2022/11/12 15:54:17;;;;;;;16.60;9.20;;;;;;;7.47;83.35;100601.67;24559;1331;3052789;-63
2022/11/12 15:57:08;;;;;;;18.40;9.30;;;;;;;8.57;80.02;100587.55;24563;1331;3048849;-65
2022/11/12 16:00:00;;;;;;;18.70;10.40;;;;;;;8.16;80.26;100596.41;24524;1323;3068529;-64
2022/11/12 16:02:54;;;;;;;19.80;10.00;;;;;;;8.13;80.51;100585.68;24584;1331;3049998;-65
2022/11/12 16:05:45;;;;;;;22.20;11.20;;;;;;;7.79;81.28;100596.68;24540;1327;3055370;-66
2022/11/12 16:08:34;;;;;;;19.30;10.70;;;;;;;7.58;82.12;100588.46;24551;1334;3053143;-66
2022/11/12 16:11:34;;;;;;;20.40;10.00;;;;;;;7.32;83.45;100605.95;24575;1331;3052806;-65
2022/11/12 16:14:22;;;;;;;18.90;9.00;;;;;;;7.89;82.42;100596.04;24533;1323;3051821;-67
2022/11/12 16:17:13;;;;;;;21.70;10.30;;;;;;;8.28;80.32;100585.71;24581;1337;3053079;-66
2022/11/12 16:20:14;;;;;;;22.80;12.10;;;;;;;8.10;79.99;100587.90;24547;1331;3049480;-68
2022/11/12 16:23:01;;;;;;;21.40;11.70;;;;;;;7.81;80.67;100586.16;24560;1337;3069524;-63
2022/11/12 16:25:50;;;;;;;21.30;11.70;;;;;;;7.59;81.36;100589.98;24534;1331;3050450;-67
2022/11/12 16:28:37;;;;;;;20.70;11.20;;;;;;;7.39;82.14;100590.61;24549;1333;3057264;-66
2022/11/12 16:31:26;;;;;;;20.80;10.70;;;;;;;7.48;81.97;100598.70;24580;1324;3052892;-68
2022/11/12 16:34:14;;;;;;;19.40;11.00;;;;;;;8.10;81.02;100585.27;24592;1323;3053130;-66
2022/11/12 16:37:01;;;;;;;21.80;9.70;;;;;;;8.24;79.50;100584.98;24551;1324;3052554;-68
2022/11/12 16:39:49;;;;;;;19.70;10.90;;;;;;;7.74;81.04;100582.21;24525;1331;3053528;-66
2022/11/12 16:42:36;;;;;;;22.90;12.00;;;;;;;7.64;81.55;100584.80;24550;1331;3049961;-65
2022/11/12 16:45:32;;;;;;;25.90;12.40;;;;;;;7.70;80.92;100585.48;24550;1323;3070008;-68
2022/11/12 16:48:20;;;;;;;20.80;10.20;;;;;;;7.59;82.24;100589.98;24565;1327;3050332;-64
2022/11/12 16:51:16;;;;;;;19.50;9.90;;;;;;;7.85;81.84;100580.65;24626;1323;3057093;-69
2022/11/12 16:54:04;;;;;;;27.50;11.90;;;;;;;8.34;80.00;100585.70;24598;1332;3055181;-66
2022/11/12 16:56:53;;;;;;;26.20;13.70;;;;;;;8.23;79.64;100590.06;24618;1331;3053371;-66
2022/11/12 16:59:41;;;;;;;29.30;13.40;;;;;;;7.88;80.75;100593.27;24505;1325;3052044;-66
2022/11/12 17:02:29;;;;;;;24.20;13.60;;;;;;;7.68;81.42;100581.15;24490;1334;3052697;-65
2022/11/12 17:05:19;;;;;;;21.10;10.90;;;;;;;7.37;83.71;100600.06;24554;1326;3048831;-66
2022/11/12 17:08:07;;;;;;;22.10;10.70;;;;;;;7.95;82.39;100589.77;24574;1331;3070890;-65
2022/11/12 17:10:55;;;;;;;24.20;12.60;;;;;;;8.29;80.44;100579.77;24534;1337;3050869;-68
2022/11/12 17:13:43;;;;;;;22.60;12.80;;;;;;;7.85;81.58;100590.77;24544;1335;3056861;-69
2022/11/12 17:16:32;;;;;;;21.60;11.00;;;;;;;7.73;81.93;100581.20;24588;1327;3053190;-69
2022/11/12 17:19:20;;;;;;;26.10;12.50;;;;;;;7.55;82.37;100577.92;24582;1324;3054131;-67
2022/11/12 17:22:08;;;;;;;20.20;10.50;;;;;;;7.65;82.55;100578.65;24540;1333;3051786;-69
2022/11/12 17:24:56;;;;;;;21.90;10.90;;;;;;;8.39;80.58;100564.58;24526;1333;3053243;-66
2022/11/12 17:27:44;;;;;;;24.00;11.40;;;;;;;8.20;80.23;100559.45;24485;1324;3050873;-68
2022/11/12 17:30:33;;;;;;;21.80;12.70;;;;;;;7.87;81.49;100570.81;24475;1322;3069531;-66
2022/11/12 17:33:21;;;;;;;23.10;11.70;;;;;;;7.55;82.84;100562.91;24523;1323;3050396;-69
2022/11/12 17:36:14;;;;;;;21.80;11.10;;;;;;;7.56;82.93;100559.72;24576;1320;3057443;-67
2022/11/12 17:39:02;;;;;;;16.80;9.00;;;;;;;7.54;83.96;100562.41;24553;1329;3055195;-67
2022/11/12 17:41:51;;;;;;;23.50;11.00;;;;;;;8.11;82.34;100552.24;24518;1332;3052899;-70
2022/11/12 17:44:38;;;;;;;22.00;12.40;;;;;;;8.30;80.56;100548.83;24558;1333;3052960;-70
2022/11/12 17:47:34;;;;;;;23.60;12.00;;;;;;;8.04;81.52;100554.73;24560;1340;3053149;-67
2022/11/12 17:50:22;;;;;;;25.20;12.50;;;;;;;7.75;82.38;100548.53;24551;1340;3050011;-70
2022/11/12 17:53:11;;;;;;;27.80;14.00;;;;;;;7.58;83.05;100550.42;24538;1333;3070114;-66
2022/11/12 17:55:59;;;;;;;18.70;11.00;;;;;;;7.69;82.89;100552.88;24527;1334;3049860;-71
2022/11/12 17:58:48;;;;;;;23.70;12.50;;;;;;;8.53;81.07;100547.52;24563;1326;3056884;-71